createdAt,value
2018-11-10T00:01:25.736Z,11.40
2018-11-10T00:06:19.285Z,11.56
2018-11-10T00:11:12.783Z,11.48
2018-11-10T00:16:06.279Z,11.47
2018-11-10T00:20:59.547Z,11.36
2018-11-10T00:25:53.003Z,11.30
2018-11-10T00:30:46.982Z,11.16
2018-11-10T00:35:40.540Z,11.07
2018-11-10T00:40:34.015Z,11.02
2018-11-10T00:45:27.495Z,10.92
2018-11-10T00:50:21.038Z,10.60
2018-11-10T00:55:14.609Z,10.49
2018-11-10T01:00:09.925Z,10.29
2018-11-10T01:05:03.707Z,10.13
2018-11-10T01:09:57.624Z,9.92
2018-11-10T01:14:51.260Z,9.76
2018-11-10T01:19:45.216Z,9.69
2018-11-10T01:24:39.373Z,9.60
2018-11-10T01:29:33.412Z,9.48
2018-11-10T01:34:27.000Z,9.29
2018-11-10T01:39:21.601Z,9.28
2018-11-10T01:44:15.284Z,9.26
2018-11-10T01:49:08.780Z,9.28
2018-11-10T01:54:02.408Z,9.23
2018-11-10T01:58:56.561Z,9.50
2018-11-10T02:03:50.488Z,9.50
2018-11-10T02:08:44.133Z,9.38
2018-11-10T02:13:37.624Z,9.32
2018-11-10T02:18:31.297Z,9.04
2018-11-10T02:23:25.028Z,8.86
2018-11-10T02:28:18.650Z,8.91
2018-11-10T02:33:12.144Z,9.05
2018-11-10T02:38:05.603Z,8.93
2018-11-10T02:42:59.104Z,8.83
2018-11-10T02:47:52.534Z,8.93
2018-11-10T02:52:46.642Z,9.03
2018-11-10T02:57:40.679Z,9.07
2018-11-10T03:02:34.186Z,9.05
2018-11-10T03:07:27.587Z,8.93
2018-11-10T03:12:21.207Z,8.93
2018-11-10T03:17:15.268Z,8.76
2018-11-10T03:22:08.727Z,8.68
2018-11-10T03:27:02.248Z,8.47
2018-11-10T03:31:56.166Z,8.61
2018-11-10T03:36:49.762Z,8.59
2018-11-10T03:41:43.129Z,8.67
2018-11-10T03:46:36.546Z,8.52
2018-11-10T03:51:29.997Z,8.53
2018-11-10T03:56:23.491Z,8.63
2018-11-10T04:01:17.104Z,8.51
2018-11-10T04:06:10.410Z,8.39
2018-11-10T04:11:05.297Z,8.25
2018-11-10T04:15:58.870Z,8.23
2018-11-10T04:20:52.738Z,8.30
2018-11-10T04:25:46.155Z,8.22
2018-11-10T04:30:40.121Z,8.25
2018-11-10T04:35:33.666Z,8.31
2018-11-10T04:40:27.187Z,8.45
2018-11-10T04:45:20.546Z,8.60
2018-11-10T04:50:14.386Z,8.64
2018-11-10T04:55:08.768Z,8.67
2018-11-10T05:00:02.276Z,8.86
2018-11-10T05:04:55.807Z,8.82
2018-11-10T05:09:49.344Z,8.86
2018-11-10T05:14:42.782Z,9.04
2018-11-10T05:19:36.260Z,8.94
2018-11-10T05:24:29.892Z,8.90
2018-11-10T05:29:23.426Z,8.91
2018-11-10T05:34:16.909Z,9.06
2018-11-10T05:39:10.797Z,9.25
2018-11-10T05:44:04.377Z,9.23
2018-11-10T05:48:58.288Z,9.32
2018-11-10T05:53:52.623Z,9.35
2018-11-10T05:58:45.994Z,9.41
2018-11-10T06:03:39.460Z,9.54
2018-11-10T06:08:32.961Z,9.70
2018-11-10T06:13:26.438Z,9.86
2018-11-10T06:18:19.975Z,10.05
2018-11-10T06:23:14.299Z,10.16
2018-11-10T06:28:07.721Z,10.33
2018-11-10T06:33:01.639Z,10.44
2018-11-10T06:37:55.063Z,10.41
2018-11-10T06:42:49.360Z,10.07
2018-11-10T06:47:43.002Z,9.99
2018-11-10T06:52:36.601Z,9.93
2018-11-10T06:57:30.092Z,9.96
2018-11-10T07:02:23.667Z,9.95
2018-11-10T07:07:17.235Z,10.20
2018-11-10T07:12:10.769Z,10.29
2018-11-10T07:17:04.270Z,10.43
2018-11-10T07:21:57.715Z,10.63
2018-11-10T07:26:51.279Z,10.83
2018-11-10T07:31:44.846Z,10.94
2018-11-10T07:36:38.394Z,11.24
2018-11-10T07:41:31.945Z,11.65
2018-11-10T07:46:25.427Z,12.04
2018-11-10T07:51:19.049Z,12.49
2018-11-10T07:56:12.681Z,12.88
2018-11-10T08:01:06.594Z,13.07
2018-11-10T08:06:00.262Z,13.25
2018-11-10T08:10:53.838Z,13.33
2018-11-10T08:15:47.335Z,13.41
2018-11-10T08:20:40.775Z,13.35
2018-11-10T08:25:34.368Z,13.44
2018-11-10T08:30:27.766Z,13.61
2018-11-10T08:35:21.321Z,13.68
2018-11-10T08:40:16.423Z,13.58
2018-11-10T08:45:11.423Z,13.73
2018-11-10T08:50:05.873Z,13.75
2018-11-10T08:54:59.401Z,13.79
2018-11-10T08:59:54.174Z,13.80
2018-11-10T09:04:47.781Z,13.91
2018-11-10T09:09:41.348Z,13.98
2018-11-10T09:14:34.859Z,14.37
2018-11-10T09:19:28.460Z,14.70
2018-11-10T09:24:22.300Z,14.54
2018-11-10T09:29:16.007Z,14.30
2018-11-10T09:34:09.410Z,14.13
2018-11-10T09:39:03.465Z,14.13
2018-11-10T09:43:56.995Z,14.29
2018-11-10T09:48:50.525Z,14.43
2018-11-10T09:53:44.088Z,15.29
2018-11-10T09:58:37.482Z,15.85
2018-11-10T10:03:31.285Z,16.05
2018-11-10T10:08:24.805Z,15.85
2018-11-10T10:13:18.135Z,15.84
2018-11-10T10:18:11.942Z,15.67
2018-11-10T10:23:05.982Z,15.29
2018-11-10T10:27:59.496Z,15.40
2018-11-10T10:32:53.035Z,15.37
2018-11-10T10:37:47.633Z,15.59
2018-11-10T10:42:41.123Z,15.77
2018-11-10T10:47:34.596Z,15.50
2018-11-10T10:52:28.219Z,15.04
2018-11-10T10:57:21.762Z,15.07
2018-11-10T11:02:20.670Z,15.28
2018-11-10T11:07:14.164Z,15.37
2018-11-10T11:12:07.757Z,15.05
2018-11-10T11:17:01.216Z,14.96
2018-11-10T11:21:54.917Z,14.68
2018-11-10T11:26:48.413Z,14.77
2018-11-10T11:31:42.195Z,15.03
2018-11-10T11:36:35.804Z,15.28
2018-11-10T11:41:29.928Z,15.40
2018-11-10T11:46:23.354Z,15.26
2018-11-10T11:51:18.412Z,14.97
2018-11-10T11:56:12.365Z,15.21
2018-11-10T12:01:06.008Z,15.28
2018-11-10T12:05:59.507Z,15.62
2018-11-10T12:10:52.895Z,15.78
2018-11-10T12:15:46.463Z,15.71
2018-11-10T12:20:40.039Z,15.87
2018-11-10T12:25:33.613Z,15.86
2018-11-10T12:30:27.306Z,15.78
2018-11-10T12:35:20.842Z,15.94
2018-11-10T12:40:14.617Z,16.30
2018-11-10T12:45:09.610Z,16.34
2018-11-10T12:50:03.184Z,16.08
2018-11-10T12:54:56.859Z,15.90
2018-11-10T12:59:50.262Z,15.84
2018-11-10T13:04:43.820Z,15.46
2018-11-10T13:09:37.343Z,15.29
2018-11-10T13:14:30.878Z,15.30
2018-11-10T13:19:24.235Z,15.24
2018-11-10T13:24:17.794Z,15.04
2018-11-10T13:29:11.275Z,14.88
2018-11-10T13:34:05.095Z,14.82
2018-11-10T13:38:58.495Z,14.83
2018-11-10T13:43:52.166Z,14.85
2018-11-10T13:48:45.774Z,14.90
2018-11-10T13:53:39.251Z,14.89
2018-11-10T13:58:32.786Z,14.79
2018-11-10T14:03:26.287Z,14.71
2018-11-10T14:08:19.648Z,14.51
2018-11-10T14:13:13.124Z,14.41
2018-11-10T14:18:06.788Z,14.21
2018-11-10T14:23:00.409Z,13.99
2018-11-10T14:27:54.318Z,13.80
2018-11-10T14:32:47.975Z,13.65
2018-11-10T14:37:41.536Z,13.32
2018-11-10T14:42:34.946Z,13.13
2018-11-10T14:47:28.413Z,12.93
2018-11-10T14:52:22.027Z,12.75
2018-11-10T14:57:15.591Z,12.50
2018-11-10T15:02:09.182Z,12.20
2018-11-10T15:07:02.661Z,11.96
2018-11-10T15:11:56.170Z,11.85
2018-11-10T15:16:49.624Z,11.67
2018-11-10T15:21:43.028Z,11.40
2018-11-10T15:26:36.837Z,11.21
2018-11-10T15:31:30.419Z,11.13
2018-11-10T15:36:23.972Z,10.91
2018-11-10T15:41:17.327Z,10.91
2018-11-10T15:46:10.972Z,10.96
2018-11-10T15:51:04.741Z,10.96
2018-11-10T15:55:58.244Z,11.01
2018-11-10T16:00:51.793Z,11.04
2018-11-10T16:05:45.227Z,11.03
2018-11-10T16:10:40.039Z,10.91
2018-11-10T16:15:33.844Z,10.73
2018-11-10T16:20:27.588Z,10.60
2018-11-10T16:25:21.758Z,10.55
2018-11-10T16:30:16.932Z,10.56
2018-11-10T16:35:10.504Z,10.52
2018-11-10T16:40:05.723Z,10.54
2018-11-10T16:44:59.295Z,10.35
2018-11-10T16:49:52.724Z,10.41
2018-11-10T16:54:46.526Z,10.37
2018-11-10T16:59:40.097Z,10.34
2018-11-10T17:04:33.596Z,10.27
2018-11-10T17:09:27.169Z,10.37
2018-11-10T17:14:20.683Z,10.42
2018-11-10T17:19:14.694Z,10.49
2018-11-10T17:24:08.756Z,10.37
2018-11-10T17:29:02.494Z,10.43
2018-11-10T17:33:56.528Z,10.53
2018-11-10T17:38:49.967Z,10.49
2018-11-10T17:43:43.662Z,10.39
2018-11-10T17:48:37.469Z,10.30
2018-11-10T17:53:31.043Z,10.33
2018-11-10T17:58:24.785Z,10.16
2018-11-10T18:03:18.267Z,10.14
2018-11-10T18:08:11.864Z,10.01
2018-11-10T18:13:05.480Z,9.97
2018-11-10T18:17:59.115Z,10.02
2018-11-10T18:22:52.660Z,9.89
2018-11-10T18:27:46.224Z,9.97
2018-11-10T18:32:39.763Z,9.90
2018-11-10T18:37:33.319Z,9.86
2018-11-10T18:42:27.250Z,9.93
2018-11-10T18:47:20.658Z,9.85
2018-11-10T18:52:15.665Z,9.78
2018-11-10T18:57:09.250Z,9.75
2018-11-10T19:02:02.667Z,9.63
2018-11-10T19:06:56.147Z,9.62
2018-11-10T19:11:49.646Z,9.59
2018-11-10T19:16:43.016Z,9.61
2018-11-10T19:21:36.461Z,9.67
2018-11-10T19:26:30.317Z,9.60
2018-11-10T19:31:23.746Z,9.50
2018-11-10T19:36:17.530Z,9.35
2018-11-10T19:41:11.137Z,9.28
2018-11-10T19:46:04.996Z,9.19
2018-11-10T19:50:58.731Z,9.12
2018-11-10T19:55:52.470Z,9.13
2018-11-10T20:00:46.316Z,8.99
2018-11-10T20:05:39.916Z,8.94
2018-11-10T20:10:33.528Z,8.90
2018-11-10T20:15:27.028Z,8.76
2018-11-10T20:20:20.395Z,8.72
2018-11-10T20:25:15.165Z,8.61
2018-11-10T20:30:12.650Z,8.61
2018-11-10T20:35:07.240Z,8.38
2018-11-10T20:40:00.886Z,8.26
2018-11-10T20:44:54.504Z,8.15
2018-11-10T20:49:47.908Z,7.97
2018-11-10T20:54:41.406Z,8.01
2018-11-10T20:59:34.929Z,7.83
2018-11-10T21:04:28.407Z,7.78
2018-11-10T21:09:21.925Z,7.78
2018-11-10T21:14:15.438Z,7.83
2018-11-10T21:19:08.875Z,7.78
2018-11-10T21:24:02.413Z,7.84
2018-11-10T21:28:55.999Z,7.86
2018-11-10T21:33:49.490Z,7.97
2018-11-10T21:38:42.933Z,8.10
2018-11-10T21:43:36.859Z,8.20
2018-11-10T21:48:30.458Z,8.36
2018-11-10T21:53:23.866Z,8.40
2018-11-10T21:58:17.254Z,8.51
2018-11-10T22:03:10.733Z,8.71
2018-11-10T22:08:04.266Z,8.79
2018-11-10T22:12:57.801Z,8.80
2018-11-10T22:17:51.411Z,8.87
2018-11-10T22:22:44.971Z,8.92
2018-11-10T22:27:41.102Z,8.92
2018-11-10T22:32:34.582Z,8.92
2018-11-10T22:37:28.053Z,9.08
2018-11-10T22:42:21.478Z,9.07
2018-11-10T22:47:14.918Z,9.03
2018-11-10T22:52:08.344Z,8.96
2018-11-10T22:57:01.901Z,9.17
2018-11-10T23:01:55.340Z,9.23
2018-11-10T23:06:48.821Z,9.28
2018-11-10T23:11:42.275Z,9.31
2018-11-10T23:16:35.590Z,9.36
2018-11-10T23:21:29.037Z,9.38
2018-11-10T23:26:22.520Z,9.32
2018-11-10T23:31:15.892Z,9.38
2018-11-10T23:36:09.439Z,9.32
2018-11-10T23:41:03.815Z,9.26
2018-11-10T23:45:57.205Z,9.24
2018-11-10T23:50:50.650Z,9.27
2018-11-10T23:55:44.157Z,9.27
